»·PEaware :: UAL801 KSFO-KDEN

UAL801 :: KSFO-KDEN

FLIGHT INFORMATION

Flight Status: Arrived
Operator:
United Airlines
More flights by this operator :: More flights under this callsign
Pilot: Evan H. (11904)
Aircraft: BOEING 777-200
(B772)
More flights by this aircraft type
Origin: KSFO San Francisco Intl
United States
Destination: KDEN Denver Intl
United States
More flights between these airports :: More routes between these airports
Route: TRUKN2 SYRAH Q128 JSICA MLF J28 HVE WOLLF TELLR2
File this flight plan on PilotEdge
Remarks: PBN / A1B1D1S2T1 DOF / 180501 REG / N785UA EET / KZLC0039 KZDV0119 OPR / UAL PER / D RMK / TCAS SIMBRIEF
Altitude:
(Current/Filed)
37,000ft
Speed:
(Current/Filed)
490kts
Departed: 01-May-18 07:28 PM
Arrived: 01-May-18 09:25 PM
Distance/Time
Traveled:
838nm/1:56
Distance/Time
To Go:
Arrived

Flight Plot

Page will automatically refresh every two minutes.


Map Options




Map Legend


Flown Route
Filed Route
Departure Airport
Arrival Airport
Navaid (VOR, NDB)
Fix

Horizontal Profiles

Position Reports

Time Latitude Longitude Heading Altitude Ground
Speed
01-May-18 19:00 37.621586 -122.389950 208 26ft 0kts
01-May-18 19:01 37.621586 -122.389950 208 26ft 0kts
01-May-18 19:02 37.621586 -122.389950 208 26ft 0kts
01-May-18 19:03 37.621586 -122.389950 208 26ft 0kts
01-May-18 19:04 37.621586 -122.389950 208 26ft 0kts
01-May-18 19:05 37.621586 -122.389950 208 26ft 0kts
01-May-18 19:06 37.621586 -122.389950 208 26ft 0kts
01-May-18 19:07 37.621586 -122.389950 208 26ft 0kts
01-May-18 19:08 37.621586 -122.389950 208 26ft 0kts
01-May-18 19:09 37.621586 -122.389950 208 26ft 0kts
01-May-18 19:10 37.621586 -122.389950 208 26ft 0kts
01-May-18 19:11 37.621586 -122.389950 208 26ft 0kts
01-May-18 19:12 37.621586 -122.389950 208 26ft 0kts
01-May-18 19:13 37.621586 -122.389950 208 26ft 0kts
01-May-18 19:14 37.621586 -122.389950 208 26ft 0kts
01-May-18 19:15 37.622016 -122.389661 208 26ft 2kts
01-May-18 19:16 37.622381 -122.389416 208 26ft 0kts
01-May-18 19:17 37.622380 -122.389416 208 26ft 0kts
01-May-18 19:18 37.622379 -122.389417 208 26ft 0kts
01-May-18 19:19 37.622379 -122.389417 208 26ft 0kts
01-May-18 19:20 37.622378 -122.389417 208 26ft 0kts
01-May-18 19:21 37.621882 -122.387363 111 26ft 11kts
01-May-18 19:22 37.619429 -122.381587 117 26ft 18kts
01-May-18 19:23 37.617591 -122.376554 110 26ft 13kts
01-May-18 19:24 37.614954 -122.369787 121 26ft 18kts
01-May-18 19:25 37.611547 -122.362741 117 26ft 22kts
01-May-18 19:26 37.610637 -122.359394 66 26ft 1kts
01-May-18 19:27 37.611673 -122.358615 355 26ft 7kts
01-May-18 19:28 37.616527 -122.369832 295 27ft 120kts
01-May-18 19:29 37.647417 -122.407401 355 2086ft 205kts
01-May-18 19:30 37.685922 -122.338531 71 5953ft 272kts
01-May-18 19:31 37.709732 -122.245278 69 9849ft 287kts
01-May-18 19:32 37.736081 -122.140956 69 12830ft 348kts
01-May-18 19:33 37.784474 -122.027306 41 16873ft 384kts
01-May-18 19:34 37.839965 -121.907519 65 21188ft 414kts
01-May-18 19:34 37.867211 -121.788643 71 24465ft 434kts
01-May-18 19:35 37.893755 -121.637375 68 28321ft 445kts
01-May-18 19:36 37.922269 -121.484038 65 31866ft 442kts
01-May-18 19:37 37.950067 -121.332717 67 34698ft 444kts
01-May-18 19:38 37.977774 -121.177552 68 36615ft 455kts
01-May-18 19:39 38.004543 -121.018820 71 37937ft 460kts
01-May-18 19:40 38.028585 -120.858862 72 38673ft 462kts
01-May-18 19:41 38.052688 -120.698495 72 37264ft 465kts
01-May-18 19:42 38.077651 -120.537729 72 36897ft 466kts
01-May-18 19:43 38.102262 -120.375105 73 36900ft 470kts
01-May-18 19:44 38.126462 -120.212605 73 36918ft 471kts
01-May-18 19:45 38.150564 -120.048991 74 36920ft 472kts
01-May-18 19:46 38.174544 -119.884543 74 36924ft 472kts
01-May-18 19:47 38.198195 -119.720668 74 36926ft 473kts
01-May-18 19:48 38.221680 -119.556274 74 36912ft 474kts
01-May-18 19:49 38.245062 -119.390841 74 36903ft 475kts
01-May-18 19:50 38.268153 -119.225748 75 36898ft 475kts
01-May-18 19:51 38.291192 -119.059244 75 36890ft 478kts
01-May-18 19:52 38.314013 -118.892502 76 36879ft 479kts
01-May-18 19:53 38.336698 -118.724912 76 36868ft 482kts
01-May-18 19:54 38.359286 -118.556154 76 36864ft 483kts
01-May-18 19:55 38.381656 -118.387106 77 36865ft 485kts
01-May-18 19:56 38.403852 -118.217422 77 36870ft 486kts
01-May-18 19:57 38.425904 -118.046850 78 36864ft 487kts
01-May-18 19:58 38.447685 -117.876390 78 36861ft 488kts
01-May-18 19:59 38.469329 -117.704932 78 36868ft 488kts
01-May-18 20:00 38.490950 -117.534222 79 36869ft 489kts
01-May-18 20:01 38.511785 -117.362925 79 36870ft 489kts
01-May-18 20:02 38.521819 -117.189288 90 36871ft 492kts
01-May-18 20:03 38.515436 -117.014884 90 36872ft 492kts
01-May-18 20:04 38.510627 -116.840358 90 36873ft 493kts
01-May-18 20:05 38.508869 -116.746814 90 36873ft 493kts
01-May-18 20:06 38.504881 -116.574125 91 36874ft 494kts
01-May-18 20:07 38.500325 -116.399181 91 36879ft 494kts
01-May-18 20:08 38.495454 -116.223505 91 36881ft 494kts
01-May-18 20:09 38.490331 -116.048259 92 36883ft 495kts
01-May-18 20:10 38.484920 -115.872158 92 36892ft 496kts
01-May-18 20:11 38.479247 -115.696294 92 36895ft 496kts
01-May-18 20:12 38.473313 -115.520474 93 36901ft 497kts
01-May-18 20:13 38.467093 -115.344004 93 36904ft 497kts
01-May-18 20:14 38.460624 -115.167956 93 36911ft 498kts
01-May-18 20:15 38.453871 -114.991448 94 36906ft 499kts
01-May-18 20:16 38.446813 -114.813931 94 36907ft 501kts
01-May-18 20:17 38.439502 -114.636836 95 36906ft 502kts
01-May-18 20:18 38.431873 -114.458613 95 36905ft 503kts
01-May-18 20:19 38.423989 -114.280716 96 36904ft 503kts
01-May-18 20:20 38.415822 -114.102570 96 36908ft 504kts
01-May-18 20:21 38.407359 -113.923773 97 36908ft 505kts
01-May-18 20:22 38.398619 -113.745115 97 36906ft 505kts
01-May-18 20:23 38.389613 -113.566480 97 36904ft 505kts
01-May-18 20:24 38.380530 -113.387713 97 36903ft 506kts
01-May-18 20:25 38.371010 -113.208898 98 36901ft 507kts
01-May-18 20:26 38.360923 -113.029304 98 36900ft 508kts
01-May-18 20:27 38.363993 -112.848127 90 36900ft 514kts
01-May-18 20:28 38.370722 -112.666166 92 36904ft 515kts
01-May-18 20:29 38.376703 -112.483065 92 36908ft 517kts
01-May-18 20:30 38.382357 -112.300068 93 36912ft 517kts
01-May-18 20:31 38.387445 -112.116890 93 36910ft 518kts
01-May-18 20:32 38.392246 -111.932932 93 36906ft 519kts
01-May-18 20:33 38.396757 -111.748842 94 36907ft 520kts
01-May-18 20:34 38.400985 -111.564608 94 36906ft 521kts
01-May-18 20:35 38.404945 -111.379431 94 36918ft 522kts
01-May-18 20:36 38.408613 -111.194330 94 36916ft 524kts
01-May-18 20:37 38.412405 -111.007915 94 36913ft 525kts
01-May-18 20:38 38.415243 -110.821301 94 36910ft 529kts
01-May-18 20:39 38.418397 -110.633630 94 36910ft 531kts
01-May-18 20:40 38.422441 -110.444342 95 36911ft 534kts
01-May-18 20:41 38.426028 -110.255000 95 36911ft 535kts
01-May-18 20:42 38.430473 -110.065065 95 36907ft 537kts
01-May-18 20:43 38.433992 -109.874008 95 36902ft 538kts
01-May-18 20:44 38.437129 -109.683745 97 36900ft 536kts
01-May-18 20:45 38.439896 -109.493949 97 36903ft 536kts
01-May-18 20:46 38.442390 -109.303196 97 36921ft 537kts
01-May-18 20:47 38.444572 -109.112821 97 36933ft 538kts
01-May-18 20:48 38.446454 -108.921804 97 36943ft 540kts
01-May-18 20:49 38.448035 -108.729484 97 36950ft 542kts
01-May-18 20:50 38.449300 -108.537156 97 36956ft 543kts
01-May-18 20:51 38.450261 -108.343533 98 36960ft 545kts
01-May-18 20:52 38.450900 -108.150255 98 36957ft 546kts
01-May-18 20:53 38.451505 -107.956166 97 36943ft 548kts
01-May-18 20:54 38.451420 -107.761305 98 36946ft 549kts
01-May-18 20:55 38.461019 -107.566130 80 36968ft 568kts
01-May-18 20:56 38.541831 -107.390439 59 36969ft 578kts
01-May-18 20:57 38.622443 -107.212991 63 36991ft 576kts
01-May-18 20:58 38.701791 -107.035030 62 37003ft 576kts
01-May-18 20:59 38.781009 -106.856407 62 37043ft 575kts
01-May-18 21:00 38.859141 -106.678045 62 36669ft 573kts
01-May-18 21:01 38.941586 -106.500156 61 34707ft 583kts
01-May-18 21:02 39.024452 -106.319946 61 31028ft 581kts
01-May-18 21:03 39.101961 -106.148596 61 29081ft 542kts
01-May-18 21:04 39.175831 -105.982383 61 26196ft 523kts
01-May-18 21:05 39.245759 -105.823382 61 23620ft 495kts
01-May-18 21:06 39.311279 -105.673487 61 21760ft 457kts
01-May-18 21:07 39.369873 -105.539735 62 21330ft 401kts
01-May-18 21:08 39.399593 -105.409073 91 20099ft 369kts
01-May-18 21:09 39.404155 -105.278301 90 18597ft 363kts
01-May-18 21:10 39.409965 -105.153814 91 16593ft 328kts
01-May-18 21:11 39.414443 -105.049498 91 14749ft 304kts
01-May-18 21:12 39.418886 -104.946048 90 13478ft 265kts
01-May-18 21:13 39.426912 -104.853967 86 12098ft 256kts
01-May-18 21:15 39.435375 -104.763892 79 11105ft 247kts
01-May-18 21:16 39.462066 -104.688674 37 11040ft 219kts
01-May-18 21:17 39.521010 -104.668184 12 11052ft 220kts
01-May-18 21:18 39.574876 -104.663435 0 10316ft 207kts
01-May-18 21:19 39.632012 -104.662799 359 9232ft 204kts
01-May-18 21:20 39.686495 -104.662173 2 8165ft 177kts
01-May-18 21:21 39.730918 -104.661661 3 7353ft 150kts
01-May-18 21:22 39.773196 -104.661172 3 6520ft 151kts
01-May-18 21:23 39.814792 -104.660587 2 5698ft 145kts
01-May-18 21:24 39.850867 -104.660334 348 5445ft 59kts
01-May-18 21:25 39.852692 -104.661344 326 5445ft 2kts
01-May-18 21:26 39.853124 -104.661760 323 5445ft 13kts
01-May-18 21:27 39.856315 -104.662336 3 5445ft 10kts
01-May-18 21:28 39.856643 -104.666012 262 5445ft 17kts
01-May-18 21:29 39.856680 -104.671603 270 5445ft 16kts
01-May-18 21:30 39.856976 -104.672786 342 5445ft 2kts
01-May-18 21:31 39.858105 -104.672843 359 5445ft 1kts
01-May-18 21:32 39.858129 -104.672843 359 5445ft 0kts
01-May-18 21:33 39.858130 -104.672843 359 5445ft 0kts
01-May-18 21:34 39.858130 -104.672843 359 5445ft 0kts
01-May-18 21:35 39.858131 -104.672843 359 5445ft 0kts
01-May-18 21:36 39.858132 -104.672843 359 5445ft 0kts
01-May-18 21:37 39.858133 -104.672843 359 5445ft 0kts
01-May-18 21:38 39.858134 -104.672843 359 5445ft 0kts
01-May-18 21:39 39.858134 -104.672843 359 5445ft 0kts

Navigation Log

Ident Type
1. KSFO Airport
2. JSICA Fix
3. MLF Navaid
4. HVE Navaid
5. KDEN Airport